Weather at Bunnyconnellan Airstrip

Public forecast

Using degrees Celsius for public forecast. Weather courtesy of forecast.io.

Closest aviation weather report (METAR) to Bunnyconnellan Airstrip

Closest report is Ireland West Knock Airport, 13.4 nm (24.9 km) SE.

2024/02/29 09:30 (retrieved 34 minutes ago)

EIKN 290930Z 21008KT 170V250 9999 FEW014 FEW020CB 04/02 Q0999 NOSIG

Closest aviation forecast (TAF) to Bunnyconnellan Airstrip

Closest forecast is Ireland West Knock Airport, 13.4 nm (24.9 km) SE.

2024/02/29 06:09 (retrieved 4 hours ago)

TAF EIKN 290500Z 2906/0106 23011KT 9999 BKN020 TEMPO 2906/2919 -SHRA FEW018CB PROB30 TEMPO 2906/2919 4000 -SHRAGS SCT018CB PROB40 TEMPO 2911/2917 24015G25KT BECMG 2917/2919 18009KT TEMPO 2919/0102 4000 -SHRA BKN006 PROB30 TEMPO 2919/0102 2000 -SHRAGS BKN002